AAL1732 EGPH-EGCC
Flight info
| Callsign | AAL1732 |
|---|---|
| Flight time | N/A |
| Altitude | 25000 |
| Route | GOSAM P600 FENIK L612 LAKEY |
| Aircraft | A321/M-SDE3FGHIRWY/LB1 |
Departure
| Time | 2026-05-04 17:11 |
|---|---|
| Airport | Edinburgh Airport (EGPH) |
Arrival
| Time | N/A |
|---|---|
| Airport | Manchester Airport (EGCC) |
| Time | Latitude | Longitude | Altitude | Speed | Heading |
|---|---|---|---|---|---|
| 2026-05-04 16:50 | 55.94954 | -3.36026 | 108 ft | 0 kts | 254° |
| 2026-05-04 17:02 | 55.94960 | -3.35986 | 108 ft | 2 kts | 254° |
| 2026-05-04 17:03 | 55.94965 | -3.35959 | 108 ft | 2 kts | 253° |
| 2026-05-04 17:03 | 55.94967 | -3.35928 | 108 ft | 2 kts | 277° |
| 2026-05-04 17:03 | 55.94953 | -3.35871 | 108 ft | 2 kts | 314° |
| 2026-05-04 17:04 | 55.94933 | -3.35846 | 108 ft | 1 kts | 337° |
| 2026-05-04 17:04 | 55.94932 | -3.35846 | 108 ft | 0 kts | 337° |
| 2026-05-04 17:07 | 55.94944 | -3.35852 | 108 ft | 2 kts | 349° |
| 2026-05-04 17:07 | 55.94975 | -3.35852 | 108 ft | 4 kts | 9° |
| 2026-05-04 17:08 | 55.95019 | -3.35822 | 108 ft | 7 kts | 27° |
| 2026-05-04 17:08 | 55.95126 | -3.35889 | 108 ft | 10 kts | 309° |
| 2026-05-04 17:08 | 55.95198 | -3.35967 | 107 ft | 11 kts | 4° |
| 2026-05-04 17:09 | 55.95271 | -3.35871 | 107 ft | 11 kts | 57° |
| 2026-05-04 17:09 | 55.95322 | -3.35724 | 107 ft | 12 kts | 61° |
| 2026-05-04 17:09 | 55.95375 | -3.35561 | 107 ft | 14 kts | 58° |
| 2026-05-04 17:10 | 55.95456 | -3.35421 | 107 ft | 0 kts | 355° |
| 2026-05-04 17:10 | 55.95549 | -3.35585 | 106 ft | 10 kts | 259° |
| 2026-05-04 17:11 | 55.95351 | -3.36205 | 107 ft | 96 kts | 239° |
| 2026-05-04 17:11 | 55.94937 | -3.37440 | 108 ft | 161 kts | 240° |
| 2026-05-04 17:11 | 55.93488 | -3.41931 | 1779 ft | 191 kts | 244° |
| 2026-05-04 17:12 | 55.92772 | -3.44157 | 2797 ft | 179 kts | 244° |
| 2026-05-04 17:12 | 55.91330 | -3.48639 | 4108 ft | 192 kts | 244° |
| 2026-05-04 17:13 | 55.89055 | -3.55782 | 6227 ft | 205 kts | 244° |
| 2026-05-04 17:14 | 55.86218 | -3.62977 | 8253 ft | 234 kts | 209° |
| 2026-05-04 17:14 | 55.84397 | -3.64220 | 8807 ft | 251 kts | 205° |
| 2026-05-04 17:14 | 55.80335 | -3.64792 | 9771 ft | 292 kts | 177° |
| 2026-05-04 17:15 | 55.78039 | -3.64384 | 10479 ft | 301 kts | 177° |
| 2026-05-04 17:15 | 55.73204 | -3.63768 | 11300 ft | 337 kts | 179° |
| 2026-05-04 17:16 | 55.67961 | -3.63333 | 12310 ft | 361 kts | 180° |
| 2026-05-04 17:16 | 55.59768 | -3.62754 | 14462 ft | 372 kts | 180° |
| 2026-05-04 17:17 | 55.57022 | -3.62571 | 15136 ft | 376 kts | 180° |
| 2026-05-04 17:17 | 55.48608 | -3.62012 | 17004 ft | 388 kts | 180° |
| 2026-05-04 17:18 | 55.45773 | -3.61824 | 17601 ft | 391 kts | 180° |
| 2026-05-04 17:18 | 55.40075 | -3.61449 | 18737 ft | 399 kts | 180° |
| 2026-05-04 17:19 | 55.34195 | -3.61064 | 19912 ft | 404 kts | 180° |
| 2026-05-04 17:19 | 55.28320 | -3.60688 | 20997 ft | 410 kts | 179° |
| 2026-05-04 17:20 | 55.22340 | -3.60303 | 22048 ft | 415 kts | 179° |
| 2026-05-04 17:20 | 55.16289 | -3.59914 | 23076 ft | 419 kts | 179° |
| 2026-05-04 17:20 | 55.13322 | -3.59722 | 23569 ft | 421 kts | 179° |
| 2026-05-04 17:21 | 55.07207 | -3.59323 | 24500 ft | 426 kts | 179° |
| 2026-05-04 17:21 | 55.01059 | -3.58801 | 25024 ft | 432 kts | 174° |
| 2026-05-04 17:22 | 54.97848 | -3.57578 | 25028 ft | 433 kts | 163° |
| 2026-05-04 17:22 | 54.94854 | -3.55452 | 25030 ft | 435 kts | 154° |
| 2026-05-04 17:23 | 54.86733 | -3.47717 | 25034 ft | 435 kts | 151° |
| 2026-05-04 17:23 | 54.84062 | -3.45174 | 25034 ft | 435 kts | 151° |
| 2026-05-04 17:23 | 54.78667 | -3.40099 | 24961 ft | 434 kts | 152° |
| 2026-05-04 17:24 | 54.75983 | -3.37596 | 24697 ft | 432 kts | 151° |
| 2026-05-04 17:24 | 54.67191 | -3.30297 | 23849 ft | 427 kts | 157° |
| 2026-05-04 17:25 | 54.64144 | -3.28012 | 23559 ft | 425 kts | 157° |
| 2026-05-04 17:25 | 54.58035 | -3.23437 | 22950 ft | 418 kts | 156° |
| 2026-05-04 17:26 | 54.52064 | -3.18971 | 21658 ft | 413 kts | 157° |
| 2026-05-04 17:26 | 54.43292 | -3.12445 | 19889 ft | 401 kts | 157° |
| 2026-05-04 17:27 | 54.37674 | -3.08283 | 18798 ft | 393 kts | 157° |
| 2026-05-04 17:27 | 54.32091 | -3.04159 | 18334 ft | 368 kts | 157° |
| 2026-05-04 17:28 | 54.26869 | -3.00311 | 17877 ft | 346 kts | 157° |
| 2026-05-04 17:29 | 54.19963 | -2.93740 | 17277 ft | 315 kts | 147° |
| 2026-05-04 17:29 | 54.13916 | -2.86922 | 16407 ft | 298 kts | 147° |
| 2026-05-04 17:30 | 54.08006 | -2.80298 | 15234 ft | 293 kts | 148° |
| 2026-05-04 17:31 | 54.04223 | -2.76078 | 15053 ft | 291 kts | 148° |
| 2026-05-04 17:31 | 53.98380 | -2.69581 | 15034 ft | 292 kts | 148° |
| 2026-05-04 17:32 | 53.94479 | -2.65254 | 15041 ft | 291 kts | 147° |
| 2026-05-04 17:33 | 53.88850 | -2.59021 | 14287 ft | 287 kts | 148° |
| 2026-05-04 17:33 | 53.86995 | -2.56974 | 13903 ft | 286 kts | 148° |
| 2026-05-04 17:34 | 53.81319 | -2.50725 | 12778 ft | 283 kts | 148° |
| 2026-05-04 17:34 | 53.79454 | -2.48676 | 12411 ft | 281 kts | 147° |
| 2026-05-04 17:35 | 53.74542 | -2.40393 | 11314 ft | 320 kts | 121° |
| 2026-05-04 17:35 | 53.72049 | -2.33187 | 10578 ft | 313 kts | 120° |
| 2026-05-04 17:35 | 53.70845 | -2.29739 | 10215 ft | 309 kts | 123° |
| 2026-05-04 17:36 | 53.69098 | -2.27021 | 9811 ft | 304 kts | 156° |
| 2026-05-04 17:36 | 53.66840 | -2.26457 | 9442 ft | 289 kts | 193° |
| 2026-05-04 17:36 | 53.64936 | -2.28152 | 9055 ft | 267 kts | 231° |
| 2026-05-04 17:36 | 53.64101 | -2.31231 | 8690 ft | 252 kts | 260° |
| 2026-05-04 17:37 | 53.63515 | -2.34376 | 8311 ft | 252 kts | 239° |
| 2026-05-04 17:37 | 53.62074 | -2.36566 | 8037 ft | 253 kts | 205° |
| 2026-05-04 17:37 | 53.60164 | -2.36996 | 8028 ft | 251 kts | 171° |
| 2026-05-04 17:37 | 53.58418 | -2.35568 | 8035 ft | 253 kts | 136° |
| 2026-05-04 17:38 | 53.57423 | -2.32747 | 8028 ft | 252 kts | 102° |
| 2026-05-04 17:38 | 53.57317 | -2.29448 | 8034 ft | 252 kts | 87° |
| 2026-05-04 17:38 | 53.57415 | -2.26071 | 8031 ft | 250 kts | 85° |
| 2026-05-04 17:38 | 53.57536 | -2.22758 | 7852 ft | 250 kts | 85° |
| 2026-05-04 17:39 | 53.57798 | -2.15997 | 6355 ft | 283 kts | 85° |
| 2026-05-04 17:39 | 53.57789 | -2.12322 | 5442 ft | 302 kts | 100° |
| 2026-05-04 17:39 | 53.56854 | -2.08669 | 4596 ft | 315 kts | 122° |
| 2026-05-04 17:40 | 53.55485 | -2.05255 | 4091 ft | 315 kts | 125° |
| 2026-05-04 17:40 | 53.54062 | -2.01884 | 3968 ft | 301 kts | 125° |
| 2026-05-04 17:40 | 53.52707 | -1.98699 | 3828 ft | 285 kts | 125° |
| 2026-05-04 17:40 | 53.51306 | -1.95866 | 3460 ft | 269 kts | 143° |
| 2026-05-04 17:41 | 53.49409 | -1.94553 | 3065 ft | 255 kts | 177° |